createdAt,value
2018-07-07T00:00:59.573Z,19.60
2018-07-07T00:03:27.837Z,19.50
2018-07-07T00:05:56.096Z,19.50
2018-07-07T00:08:24.349Z,19.50
2018-07-07T00:10:55.215Z,19.50
2018-07-07T00:13:23.503Z,19.50
2018-07-07T00:15:51.759Z,19.40
2018-07-07T00:18:20.035Z,19.40
2018-07-07T00:20:48.304Z,19.40
2018-07-07T00:23:16.502Z,19.30
2018-07-07T00:25:44.691Z,19.30
2018-07-07T00:30:41.023Z,19.20
2018-07-07T00:33:09.291Z,19.20
2018-07-07T00:35:37.521Z,19.20
2018-07-07T00:38:05.939Z,19.30
2018-07-07T00:40:34.231Z,19.30
2018-07-07T00:43:03.345Z,19.30
2018-07-07T00:45:31.532Z,19.20
2018-07-07T00:47:59.795Z,19.20
2018-07-07T00:50:28.053Z,19.20
2018-07-07T00:52:56.309Z,19.20
2018-07-07T00:55:24.523Z,19.20
2018-07-07T00:57:52.769Z,19.20
2018-07-07T01:00:21.964Z,19.20
2018-07-07T01:02:50.231Z,19.10
2018-07-07T01:05:29.657Z,19.10
2018-07-07T01:07:58.097Z,19.10
2018-07-07T01:10:26.336Z,19.10
2018-07-07T01:12:54.607Z,19.20
2018-07-07T01:15:22.879Z,19.10
2018-07-07T01:17:51.141Z,19.20
2018-07-07T01:20:19.425Z,19.20
2018-07-07T01:22:47.623Z,19.20
2018-07-07T01:25:15.795Z,19.20
2018-07-07T01:27:43.991Z,19.20
2018-07-07T01:30:12.191Z,19.20
2018-07-07T01:32:40.449Z,19.10
2018-07-07T01:35:08.713Z,19.10
2018-07-07T01:37:36.997Z,19.10
2018-07-07T01:40:05.191Z,19.10
2018-07-07T01:42:33.457Z,19.10
2018-07-07T01:45:01.733Z,19.10
2018-07-07T01:47:29.926Z,19.00
2018-07-07T01:49:58.207Z,19.00
2018-07-07T01:52:26.456Z,19.00
2018-07-07T01:54:54.671Z,19.00
2018-07-07T01:57:22.867Z,18.90
2018-07-07T01:59:51.056Z,18.80
2018-07-07T02:02:19.325Z,18.80
2018-07-07T02:04:47.496Z,18.80
2018-07-07T02:07:15.767Z,18.80
2018-07-07T02:09:44.015Z,18.80
2018-07-07T02:12:12.199Z,18.70
2018-07-07T02:14:40.507Z,18.70
2018-07-07T02:17:08.958Z,18.80
2018-07-07T02:19:37.224Z,18.80
2018-07-07T02:22:05.402Z,18.80
2018-07-07T02:24:33.686Z,18.80
2018-07-07T02:27:01.933Z,18.90
2018-07-07T02:31:58.494Z,18.90
2018-07-07T02:36:54.972Z,18.90
2018-07-07T02:39:23.214Z,18.90
2018-07-07T02:41:51.494Z,18.80
2018-07-07T02:44:19.767Z,18.80
2018-07-07T02:46:48.037Z,18.80
2018-07-07T02:49:16.285Z,18.80
2018-07-07T02:51:44.569Z,18.80
2018-07-07T02:54:12.756Z,18.80
2018-07-07T02:56:40.960Z,18.70
2018-07-07T02:59:09.215Z,18.70
2018-07-07T03:01:37.407Z,18.70
2018-07-07T03:04:05.689Z,18.70
2018-07-07T03:06:33.867Z,18.70
2018-07-07T03:09:02.131Z,18.70
2018-07-07T03:11:30.410Z,18.70
2018-07-07T03:13:58.643Z,18.60
2018-07-07T03:16:26.924Z,18.70
2018-07-07T03:18:55.198Z,18.70
2018-07-07T03:21:23.481Z,18.70
2018-07-07T03:23:51.646Z,18.70
2018-07-07T03:26:20.147Z,18.70
2018-07-07T03:28:48.356Z,18.70
2018-07-07T03:31:16.616Z,18.70
2018-07-07T03:33:44.897Z,18.70
2018-07-07T03:36:13.117Z,18.60
2018-07-07T03:38:41.352Z,18.50
2018-07-07T03:41:09.595Z,18.50
2018-07-07T03:43:37.836Z,18.40
2018-07-07T03:46:06.075Z,18.40
2018-07-07T03:48:34.322Z,18.50
2018-07-07T03:51:02.592Z,18.50
2018-07-07T03:53:30.841Z,18.60
2018-07-07T03:55:59.083Z,18.60
2018-07-07T03:58:27.355Z,18.70
2018-07-07T04:00:55.695Z,18.70
2018-07-07T04:03:24.089Z,18.80
2018-07-07T04:05:52.312Z,18.80
2018-07-07T04:08:20.601Z,18.80
2018-07-07T04:10:48.867Z,18.80
2018-07-07T04:13:17.149Z,18.80
2018-07-07T04:15:45.433Z,18.80
2018-07-07T04:18:13.695Z,18.90
2018-07-07T04:20:41.903Z,18.90
2018-07-07T04:23:10.133Z,18.90
2018-07-07T04:25:38.323Z,19.00
2018-07-07T04:28:06.611Z,19.00
2018-07-07T04:30:34.891Z,19.10
2018-07-07T04:33:03.019Z,19.10
2018-07-07T04:35:31.268Z,19.20
2018-07-07T04:37:59.527Z,19.20
2018-07-07T04:40:27.711Z,19.20
2018-07-07T04:42:55.943Z,19.30
2018-07-07T04:45:24.202Z,19.30
2018-07-07T04:47:52.393Z,19.30
2018-07-07T04:50:20.649Z,19.30
2018-07-07T04:52:48.889Z,19.30
2018-07-07T04:55:17.087Z,19.40
2018-07-07T04:57:45.341Z,19.50
2018-07-07T05:00:13.643Z,19.60
2018-07-07T05:02:41.899Z,19.70
2018-07-07T05:05:10.165Z,19.70
2018-07-07T05:07:38.420Z,19.90
2018-07-07T05:10:06.841Z,19.90
2018-07-07T05:12:35.035Z,20.00
2018-07-07T05:15:03.299Z,20.10
2018-07-07T05:17:31.597Z,20.10
2018-07-07T05:19:59.775Z,20.10
2018-07-07T05:22:27.987Z,20.10
2018-07-07T05:24:56.200Z,20.10
2018-07-07T05:27:24.610Z,20.10
2018-07-07T05:29:52.899Z,20.20
2018-07-07T05:32:21.163Z,20.10
2018-07-07T05:34:49.533Z,20.20
2018-07-07T05:37:17.846Z,20.20
2018-07-07T05:39:46.096Z,20.30
2018-07-07T05:42:14.302Z,20.30
2018-07-07T05:44:42.552Z,20.40
2018-07-07T05:47:10.932Z,20.50
2018-07-07T05:49:39.129Z,20.50
2018-07-07T05:52:07.399Z,20.60
2018-07-07T05:54:35.623Z,20.60
2018-07-07T05:57:04.088Z,20.60
2018-07-07T05:59:32.331Z,20.60
2018-07-07T06:02:00.737Z,20.70
2018-07-07T06:04:29.027Z,20.70
2018-07-07T06:06:57.413Z,20.90
2018-07-07T06:09:25.618Z,21.00
2018-07-07T06:11:53.877Z,21.10
2018-07-07T06:14:22.135Z,21.30
2018-07-07T06:16:50.391Z,21.40
2018-07-07T06:19:18.586Z,21.50
2018-07-07T06:21:46.782Z,21.60
2018-07-07T06:24:15.720Z,21.70
2018-07-07T06:26:43.952Z,21.70
2018-07-07T06:29:12.156Z,21.80
2018-07-07T06:31:40.399Z,21.90
2018-07-07T06:34:08.674Z,22.00
2018-07-07T06:36:36.920Z,22.20
2018-07-07T06:39:05.893Z,22.40
2018-07-07T06:41:34.089Z,22.60
2018-07-07T06:44:02.359Z,22.80
2018-07-07T06:46:30.571Z,22.90
2018-07-07T06:48:59.002Z,22.90
2018-07-07T06:53:56.015Z,23.10
2018-07-07T06:58:52.364Z,23.30
2018-07-07T07:01:20.552Z,23.50
2018-07-07T07:03:48.799Z,23.60
2018-07-07T07:06:17.048Z,23.70
2018-07-07T07:08:45.301Z,23.80
2018-07-07T07:11:13.508Z,23.80
2018-07-07T07:13:41.694Z,23.90
2018-07-07T07:16:09.904Z,24.00
2018-07-07T07:18:38.174Z,24.00
2018-07-07T07:21:06.431Z,24.00
2018-07-07T07:23:34.626Z,24.00
2018-07-07T07:26:02.837Z,24.00
2018-07-07T07:28:31.092Z,24.00
2018-07-07T07:30:59.342Z,24.20
2018-07-07T07:33:27.516Z,24.40
2018-07-07T07:35:55.737Z,24.50
2018-07-07T07:38:23.980Z,24.60
2018-07-07T07:40:52.246Z,24.70
2018-07-07T07:43:20.536Z,24.70
2018-07-07T07:45:48.792Z,24.70
2018-07-07T07:48:17.012Z,24.80
2018-07-07T07:50:45.264Z,24.90
2018-07-07T07:53:13.549Z,25.00
2018-07-07T07:55:41.776Z,25.00
2018-07-07T07:58:10.030Z,25.10
2018-07-07T08:00:38.258Z,25.30
2018-07-07T08:03:06.826Z,25.30
2018-07-07T08:05:35.091Z,25.30
2018-07-07T08:08:03.505Z,25.20
2018-07-07T08:10:31.850Z,25.30
2018-07-07T08:13:00.109Z,25.40
2018-07-07T08:15:28.318Z,25.40
2018-07-07T08:17:56.599Z,25.50
2018-07-07T08:20:24.814Z,25.60
2018-07-07T08:22:53.075Z,25.80
2018-07-07T08:25:21.292Z,25.80
2018-07-07T08:27:49.475Z,25.80
2018-07-07T08:30:17.732Z,25.70
2018-07-07T08:32:45.980Z,25.70
2018-07-07T08:37:42.338Z,25.90
2018-07-07T08:40:12.474Z,26.00
2018-07-07T08:45:09.006Z,26.00
2018-07-07T08:47:37.204Z,26.10
2018-07-07T08:50:05.435Z,26.10
2018-07-07T08:52:33.598Z,26.20
2018-07-07T08:55:01.883Z,26.40
2018-07-07T08:57:30.614Z,26.50
2018-07-07T08:59:59.154Z,26.80
2018-07-07T09:02:27.920Z,27.10
2018-07-07T09:04:56.178Z,27.30
2018-07-07T09:07:24.404Z,27.30
2018-07-07T09:09:52.616Z,27.40
2018-07-07T09:12:20.902Z,27.50
2018-07-07T09:14:49.096Z,27.50
2018-07-07T09:17:17.368Z,27.50
2018-07-07T09:19:45.572Z,27.50
2018-07-07T09:22:13.846Z,27.60
2018-07-07T09:24:42.068Z,27.60
2018-07-07T09:27:10.652Z,27.50
2018-07-07T09:29:38.924Z,27.40
2018-07-07T09:32:07.190Z,27.20
2018-07-07T09:34:35.406Z,27.10
2018-07-07T09:37:03.662Z,27.10
2018-07-07T09:39:31.894Z,27.10
2018-07-07T09:42:00.161Z,27.10
2018-07-07T09:44:28.418Z,27.30
2018-07-07T09:46:56.709Z,27.30
2018-07-07T09:49:24.985Z,27.40
2018-07-07T09:51:53.241Z,27.40
2018-07-07T09:54:21.436Z,27.40
2018-07-07T09:56:49.627Z,27.40
2018-07-07T09:59:17.883Z,27.40
2018-07-07T10:01:46.157Z,27.30
2018-07-07T10:04:16.760Z,27.40
2018-07-07T10:06:44.935Z,27.80
2018-07-07T10:09:13.160Z,28.10
2018-07-07T10:11:41.453Z,28.50
2018-07-07T10:14:09.707Z,28.90
2018-07-07T10:16:37.946Z,29.40
2018-07-07T10:19:06.134Z,30.00
2018-07-07T10:21:34.404Z,30.60
2018-07-07T10:24:02.694Z,31.20
2018-07-07T10:26:30.962Z,31.30
2018-07-07T10:28:59.400Z,31.60
2018-07-07T10:31:27.737Z,32.10
2018-07-07T10:33:55.989Z,32.50
2018-07-07T10:36:24.185Z,33.10
2018-07-07T10:38:52.395Z,33.80
2018-07-07T10:41:20.616Z,34.30
2018-07-07T10:43:48.896Z,34.90
2018-07-07T10:46:17.137Z,35.40
2018-07-07T10:48:45.351Z,35.30
2018-07-07T10:51:13.549Z,34.80
2018-07-07T10:53:41.835Z,35.20
2018-07-07T10:56:10.079Z,35.70
2018-07-07T10:58:38.360Z,36.40
2018-07-07T11:01:06.555Z,36.80
2018-07-07T11:03:34.844Z,36.30
2018-07-07T11:06:03.109Z,35.30
2018-07-07T11:08:31.348Z,34.60
2018-07-07T11:10:59.661Z,33.50
2018-07-07T11:13:27.941Z,32.70
2018-07-07T11:15:56.205Z,32.10
2018-07-07T11:18:24.731Z,32.30
2018-07-07T11:20:52.915Z,33.40
2018-07-07T11:23:21.248Z,34.20
2018-07-07T11:25:49.507Z,35.10
2018-07-07T11:28:17.753Z,36.10
2018-07-07T11:30:46.034Z,35.90
2018-07-07T11:33:14.283Z,35.10
2018-07-07T11:35:42.500Z,33.80
2018-07-07T11:38:10.792Z,32.90
2018-07-07T11:40:39.063Z,32.10
2018-07-07T11:43:07.290Z,31.40
2018-07-07T11:45:35.653Z,31.10
2018-07-07T11:48:03.962Z,31.10
2018-07-07T11:50:32.257Z,31.80
2018-07-07T11:53:00.424Z,33.20
2018-07-07T11:55:28.642Z,34.20
2018-07-07T11:57:56.905Z,34.60
2018-07-07T12:00:25.095Z,35.20
2018-07-07T12:02:53.350Z,35.90
2018-07-07T12:05:21.549Z,36.50
2018-07-07T12:08:00.712Z,36.40
2018-07-07T12:10:18.044Z,35.00
2018-07-07T12:12:46.253Z,33.80
2018-07-07T12:15:14.499Z,33.30
2018-07-07T12:17:42.757Z,33.80
2018-07-07T12:20:11.127Z,34.40
2018-07-07T12:22:39.411Z,34.10
2018-07-07T12:25:07.730Z,33.70
2018-07-07T12:27:35.999Z,33.40
2018-07-07T12:30:04.737Z,32.90
2018-07-07T12:32:33.006Z,33.00
2018-07-07T12:35:01.278Z,33.20
2018-07-07T12:37:29.574Z,33.20
2018-07-07T12:39:57.818Z,33.60
2018-07-07T12:42:26.032Z,34.60
2018-07-07T12:44:54.258Z,35.50
2018-07-07T12:47:22.618Z,36.00
2018-07-07T12:49:50.820Z,35.90
2018-07-07T12:52:19.100Z,36.00
2018-07-07T12:54:47.351Z,35.60
2018-07-07T12:57:15.579Z,34.60
2018-07-07T12:59:43.775Z,33.70
2018-07-07T13:02:12.232Z,32.90
2018-07-07T13:04:40.432Z,32.50
2018-07-07T13:07:08.976Z,32.00
2018-07-07T13:09:37.194Z,32.20
2018-07-07T13:12:05.494Z,33.60
2018-07-07T13:14:33.766Z,35.10
2018-07-07T13:17:02.038Z,35.50
2018-07-07T13:19:30.233Z,35.70
2018-07-07T13:21:58.824Z,35.70
2018-07-07T13:24:27.075Z,35.60
2018-07-07T13:26:55.456Z,35.90
2018-07-07T13:29:23.618Z,36.10
2018-07-07T13:31:51.850Z,36.20
2018-07-07T13:34:20.078Z,36.00
2018-07-07T13:36:48.304Z,35.80
2018-07-07T13:39:16.512Z,35.20
2018-07-07T13:41:44.719Z,34.30
2018-07-07T13:44:12.947Z,33.30
2018-07-07T13:46:41.213Z,32.80
2018-07-07T13:49:09.472Z,33.10
2018-07-07T13:51:37.740Z,33.80
2018-07-07T13:54:06.294Z,34.40
2018-07-07T13:56:34.562Z,34.00
2018-07-07T13:59:02.861Z,33.60
2018-07-07T14:01:31.040Z,33.80
2018-07-07T14:03:59.304Z,34.30
2018-07-07T14:06:27.591Z,34.80
2018-07-07T14:08:55.842Z,35.20
2018-07-07T14:11:24.016Z,35.40
2018-07-07T14:13:52.372Z,35.60
2018-07-07T14:16:20.722Z,35.90
2018-07-07T14:18:48.976Z,36.00
2018-07-07T14:21:17.236Z,35.70
2018-07-07T14:23:45.496Z,35.40
2018-07-07T14:26:13.804Z,35.10
2018-07-07T14:28:42.088Z,34.60
2018-07-07T14:31:10.336Z,34.20
2018-07-07T14:33:38.614Z,34.20
2018-07-07T14:38:38.273Z,33.80
2018-07-07T14:41:14.024Z,33.60
2018-07-07T14:43:55.568Z,33.40
2018-07-07T14:46:24.275Z,33.10
2018-07-07T14:51:20.590Z,32.00
2018-07-07T14:53:49.206Z,31.60
2018-07-07T14:56:18.809Z,31.60
2018-07-07T14:58:47.210Z,31.70
2018-07-07T15:03:43.661Z,31.90
2018-07-07T15:06:12.085Z,31.80
2018-07-07T15:08:40.397Z,31.60
2018-07-07T15:11:09.000Z,31.50
2018-07-07T15:13:37.278Z,31.50
2018-07-07T15:16:05.526Z,31.40
2018-07-07T15:18:34.564Z,31.50
2018-07-07T15:21:03.292Z,31.50
2018-07-07T15:23:31.740Z,31.40
2018-07-07T15:28:28.118Z,31.40
2018-07-07T15:30:56.398Z,31.20
2018-07-07T15:33:24.682Z,31.00
2018-07-07T15:35:52.914Z,31.00
2018-07-07T15:38:21.186Z,31.20
2018-07-07T15:40:49.978Z,31.30
2018-07-07T15:43:18.291Z,31.30
2018-07-07T15:45:46.520Z,31.20
2018-07-07T15:48:14.796Z,31.20
2018-07-07T15:50:43.082Z,31.10
2018-07-07T15:53:11.356Z,31.20
2018-07-07T15:55:39.616Z,31.20
2018-07-07T15:58:07.862Z,31.00
2018-07-07T16:00:36.143Z,31.00
2018-07-07T16:03:04.413Z,31.00
2018-07-07T16:05:32.657Z,31.00
2018-07-07T16:10:29.013Z,30.90
2018-07-07T16:12:57.218Z,30.80
2018-07-07T16:15:25.547Z,30.60
2018-07-07T16:17:55.035Z,30.50
2018-07-07T16:20:24.980Z,30.50
2018-07-07T16:22:53.204Z,30.50
2018-07-07T16:25:21.477Z,30.50
2018-07-07T16:27:49.738Z,30.40
2018-07-07T16:32:46.112Z,30.40
2018-07-07T16:35:14.396Z,30.30
2018-07-07T16:37:42.653Z,30.20
2018-07-07T16:40:10.976Z,30.00
2018-07-07T16:42:39.657Z,30.00
2018-07-07T16:45:08.245Z,30.00
2018-07-07T16:47:36.727Z,29.90
2018-07-07T16:50:05.035Z,29.80
2018-07-07T16:52:33.236Z,29.70
2018-07-07T16:55:01.565Z,29.70
2018-07-07T16:57:29.892Z,29.70
2018-07-07T16:59:58.623Z,29.70
2018-07-07T17:04:54.893Z,29.60
2018-07-07T17:07:23.213Z,29.50
2018-07-07T17:09:51.689Z,29.50
2018-07-07T17:12:19.901Z,29.40
2018-07-07T17:14:48.159Z,29.30
2018-07-07T17:17:16.441Z,29.30
2018-07-07T17:19:44.671Z,29.30
2018-07-07T17:22:12.995Z,29.20
2018-07-07T17:24:41.615Z,29.20
2018-07-07T17:27:10.107Z,29.10
2018-07-07T17:29:38.415Z,29.00
2018-07-07T17:32:07.050Z,28.90
2018-07-07T17:34:35.344Z,28.80
2018-07-07T17:37:03.879Z,28.70
2018-07-07T17:39:32.051Z,28.70
2018-07-07T17:42:00.340Z,28.60
2018-07-07T17:44:28.585Z,28.60
2018-07-07T17:46:56.925Z,28.60
2018-07-07T17:49:25.248Z,28.60
2018-07-07T17:51:53.520Z,28.60
2018-07-07T17:54:21.807Z,28.60
2018-07-07T17:56:50.101Z,28.60
2018-07-07T17:59:18.291Z,28.60
2018-07-07T18:01:46.733Z,28.50
2018-07-07T18:04:15.012Z,28.40
2018-07-07T18:06:43.188Z,28.40
2018-07-07T18:09:11.381Z,28.20
2018-07-07T18:11:39.724Z,28.10
2018-07-07T18:14:08.123Z,27.90
2018-07-07T18:16:36.462Z,27.80
2018-07-07T18:19:05.058Z,27.80
2018-07-07T18:21:33.252Z,27.70
2018-07-07T18:24:01.524Z,27.60
2018-07-07T18:26:30.042Z,27.60
2018-07-07T18:31:26.177Z,27.30
2018-07-07T18:33:54.460Z,27.30
2018-07-07T18:36:22.722Z,27.30
2018-07-07T18:41:19.074Z,27.20
2018-07-07T18:43:47.345Z,27.10
2018-07-07T18:46:15.540Z,27.10
2018-07-07T18:48:44.045Z,27.00
2018-07-07T18:51:12.238Z,27.00
2018-07-07T18:53:40.432Z,26.90
2018-07-07T18:56:08.652Z,26.90
2018-07-07T18:58:36.944Z,26.80
2018-07-07T19:01:05.189Z,26.70
2018-07-07T19:03:33.369Z,26.70
2018-07-07T19:06:01.604Z,26.60
2018-07-07T19:08:29.895Z,26.50
2018-07-07T19:10:58.141Z,26.40
2018-07-07T19:13:26.371Z,26.30
2018-07-07T19:15:54.637Z,26.20
2018-07-07T19:18:22.922Z,26.20
2018-07-07T19:20:56.413Z,26.10
2018-07-07T19:23:30.127Z,26.00
2018-07-07T19:26:03.773Z,25.90
2018-07-07T19:28:32.094Z,25.80
2018-07-07T19:31:00.323Z,25.80
2018-07-07T19:33:33.993Z,25.70
2018-07-07T19:36:07.621Z,25.60
2018-07-07T19:38:35.863Z,25.50
2018-07-07T19:41:04.083Z,25.40
2018-07-07T19:43:32.355Z,25.40
2018-07-07T19:46:00.548Z,25.30
2018-07-07T19:48:28.787Z,25.20
2018-07-07T19:50:57.085Z,25.10
2018-07-07T19:53:25.289Z,25.10
2018-07-07T19:55:53.505Z,25.00
2018-07-07T19:58:22.209Z,24.90
2018-07-07T20:03:18.405Z,24.80
2018-07-07T20:05:46.941Z,24.70
2018-07-07T20:08:15.365Z,24.60
2018-07-07T20:10:43.643Z,24.50
2018-07-07T20:13:11.899Z,24.50
2018-07-07T20:15:51.507Z,24.40
2018-07-07T20:18:19.769Z,24.40
2018-07-07T20:22:00.408Z,24.30
2018-07-07T20:27:12.855Z,24.10
2018-07-07T20:29:41.075Z,24.00
2018-07-07T20:33:16.780Z,24.00
2018-07-07T20:35:44.989Z,23.90
2018-07-07T20:38:13.265Z,23.80
2018-07-07T20:40:41.471Z,23.80
2018-07-07T20:43:09.727Z,23.70
2018-07-07T20:45:38.011Z,23.60
2018-07-07T20:48:06.207Z,23.60
2018-07-07T20:50:34.393Z,23.50
2018-07-07T20:53:02.595Z,23.50
2018-07-07T20:55:31.042Z,23.50
2018-07-07T20:57:59.219Z,23.40
2018-07-07T21:00:27.438Z,23.40
2018-07-07T21:02:55.632Z,23.40
2018-07-07T21:05:23.932Z,23.30
2018-07-07T21:07:52.170Z,23.30
2018-07-07T21:10:20.418Z,23.30
2018-07-07T21:12:48.710Z,23.30
2018-07-07T21:15:16.900Z,23.20
2018-07-07T21:17:45.212Z,23.20
2018-07-07T21:20:13.509Z,23.10
2018-07-07T21:25:10.417Z,23.10
2018-07-07T21:27:38.686Z,23.10
2018-07-07T21:30:06.967Z,23.10
2018-07-07T21:32:35.156Z,23.00
2018-07-07T21:35:03.376Z,23.00
2018-07-07T21:37:31.630Z,22.90
2018-07-07T21:39:59.890Z,22.80
2018-07-07T21:42:28.134Z,22.80
2018-07-07T21:44:56.373Z,22.70
2018-07-07T21:47:24.656Z,22.70
2018-07-07T21:49:52.946Z,22.60
2018-07-07T21:52:21.216Z,22.60
2018-07-07T21:54:49.475Z,22.60
2018-07-07T21:57:23.105Z,22.50
2018-07-07T21:59:51.384Z,22.50
2018-07-07T22:02:24.903Z,22.50
2018-07-07T22:04:58.534Z,22.40
2018-07-07T22:10:00.294Z,22.30
2018-07-07T22:12:28.622Z,22.30
2018-07-07T22:17:24.902Z,22.30
2018-07-07T22:19:53.180Z,22.30
2018-07-07T22:22:21.458Z,22.20
2018-07-07T22:24:49.750Z,22.20
2018-07-07T22:27:18.224Z,22.10
2018-07-07T22:29:46.430Z,22.10
2018-07-07T22:32:20.130Z,22.00
2018-07-07T22:34:48.396Z,21.90
2018-07-07T22:37:16.748Z,21.80
2018-07-07T22:42:14.752Z,21.70
2018-07-07T22:44:44.062Z,21.70
2018-07-07T22:47:12.597Z,21.70
2018-07-07T22:49:40.951Z,21.60
2018-07-07T22:52:10.030Z,21.50
2018-07-07T22:54:38.334Z,21.50
2018-07-07T22:57:06.800Z,21.50
2018-07-07T22:59:34.965Z,21.40
2018-07-07T23:04:31.278Z,21.40
2018-07-07T23:06:59.570Z,21.30
2018-07-07T23:09:27.784Z,21.30
2018-07-07T23:11:55.962Z,21.20
2018-07-07T23:16:52.368Z,21.10
2018-07-07T23:19:20.577Z,21.00
2018-07-07T23:21:48.844Z,20.90
2018-07-07T23:24:17.093Z,20.90
2018-07-07T23:26:45.289Z,20.80
2018-07-07T23:29:13.560Z,20.70
2018-07-07T23:31:41.781Z,20.60
2018-07-07T23:34:09.975Z,20.50
2018-07-07T23:36:38.225Z,20.40
2018-07-07T23:39:06.714Z,20.30
2018-07-07T23:44:03.003Z,20.20
2018-07-07T23:46:31.264Z,20.20
2018-07-07T23:48:59.512Z,20.10
2018-07-07T23:51:27.824Z,20.10
2018-07-07T23:53:56.060Z,20.20
2018-07-07T23:56:24.326Z,20.10
2018-07-07T23:58:52.580Z,20.10
